VOE7BL LGIR-LFRB
Flight info
| Callsign | VOE7BL |
|---|---|
| Flight time | 4h 6m |
| Altitude | 36000 |
| Route | EPALO UM749 DIRMI UL613 KOR UL53 IXONI DCT GARTA DCT TIGRA DCT TUFTE DCT KUGIX/N0451F380 DCT TESTO DCT TOP DCT RONOP DCT GIGUS DCT BALSI DCT GIPNO DCT RUSIT DCT TIS DCT VALKU/N0452F370 DCT PECNO DCT LMG/N0449F380 DCT MANAK UY110 TIRAV UN490 TERPO UM616 KORER/N0393F180 R66 LENSU V30 ROSPO |
| Aircraft | A319/M-SDE3FGHIRWY/LB1 |
Departure
| Time | 2026-04-20 17:50 |
|---|---|
| Airport | Heraklion International Nikos Kazantzakis Airport (LGIR) |
Arrival
| Time | 2026-04-20 21:56 |
|---|---|
| Airport | Brest Bretagne airport (LFRB) |
| Time | Latitude | Longitude | Altitude | Speed | Heading |
|---|---|---|---|---|---|
| 2026-04-20 17:19 | 35.33759 | 25.17538 | 91 ft | 0 kts | 275° |
| 2026-04-20 17:45 | 35.33759 | 25.17534 | 93 ft | 1 kts | 275° |
| 2026-04-20 17:45 | 35.33760 | 25.17523 | 92 ft | 2 kts | 275° |
| 2026-04-20 17:45 | 35.33770 | 25.17488 | 94 ft | 6 kts | 319° |
| 2026-04-20 17:45 | 35.33819 | 25.17493 | 91 ft | 8 kts | 7° |
| 2026-04-20 17:46 | 35.33866 | 25.17499 | 91 ft | 8 kts | 6° |
| 2026-04-20 17:46 | 35.33911 | 25.17538 | 94 ft | 10 kts | 95° |
| 2026-04-20 17:46 | 35.33903 | 25.17643 | 91 ft | 15 kts | 94° |
| 2026-04-20 17:46 | 35.33892 | 25.17786 | 92 ft | 17 kts | 95° |
| 2026-04-20 17:47 | 35.33882 | 25.17933 | 92 ft | 17 kts | 94° |
| 2026-04-20 17:47 | 35.33872 | 25.18079 | 92 ft | 17 kts | 95° |
| 2026-04-20 17:47 | 35.33862 | 25.18218 | 93 ft | 16 kts | 95° |
| 2026-04-20 17:47 | 35.33853 | 25.18358 | 91 ft | 17 kts | 95° |
| 2026-04-20 17:48 | 35.33843 | 25.18505 | 90 ft | 17 kts | 95° |
| 2026-04-20 17:48 | 35.33832 | 25.18652 | 90 ft | 17 kts | 95° |
| 2026-04-20 17:48 | 35.33821 | 25.18798 | 90 ft | 17 kts | 95° |
| 2026-04-20 17:48 | 35.33816 | 25.18912 | 90 ft | 12 kts | 81° |
| 2026-04-20 17:49 | 35.33859 | 25.18999 | 89 ft | 13 kts | 55° |
| 2026-04-20 17:49 | 35.33899 | 25.19042 | 92 ft | 5 kts | 344° |
| 2026-04-20 17:49 | 35.33908 | 25.18991 | 88 ft | 8 kts | 274° |
| 2026-04-20 17:49 | 35.33920 | 25.18813 | 89 ft | 51 kts | 275° |
| 2026-04-20 17:50 | 35.33970 | 25.18101 | 95 ft | 115 kts | 275° |
| 2026-04-20 17:50 | 35.34049 | 25.16910 | 177 ft | 155 kts | 275° |
| 2026-04-20 17:50 | 35.34147 | 25.15624 | 785 ft | 153 kts | 281° |
| 2026-04-20 17:50 | 35.34718 | 25.14556 | 1353 ft | 157 kts | 323° |
| 2026-04-20 17:51 | 35.35748 | 25.14069 | 1944 ft | 163 kts | 341° |
| 2026-04-20 17:51 | 35.36908 | 25.13661 | 2272 ft | 184 kts | 340° |
| 2026-04-20 17:51 | 35.38214 | 25.13191 | 2545 ft | 209 kts | 340° |
| 2026-04-20 17:51 | 35.39693 | 25.12656 | 2896 ft | 233 kts | 341° |
| 2026-04-20 17:52 | 35.41321 | 25.12069 | 3420 ft | 251 kts | 341° |
| 2026-04-20 17:52 | 35.43023 | 25.11455 | 4237 ft | 258 kts | 341° |
| 2026-04-20 17:52 | 35.44756 | 25.10829 | 5132 ft | 261 kts | 341° |
| 2026-04-20 17:52 | 35.46508 | 25.10194 | 5997 ft | 264 kts | 342° |
| 2026-04-20 17:53 | 35.48286 | 25.09548 | 6844 ft | 268 kts | 342° |
| 2026-04-20 17:53 | 35.50081 | 25.08893 | 7668 ft | 271 kts | 342° |
| 2026-04-20 17:53 | 35.51898 | 25.08228 | 8505 ft | 274 kts | 342° |
| 2026-04-20 17:53 | 35.53737 | 25.07556 | 9343 ft | 277 kts | 342° |
| 2026-04-20 17:54 | 35.55595 | 25.06880 | 10141 ft | 281 kts | 342° |
| 2026-04-20 17:54 | 35.57527 | 25.06175 | 10515 ft | 301 kts | 342° |
| 2026-04-20 17:54 | 35.59607 | 25.05411 | 10720 ft | 324 kts | 342° |
| 2026-04-20 17:54 | 35.61823 | 25.04596 | 11118 ft | 338 kts | 342° |
| 2026-04-20 17:55 | 35.64092 | 25.03764 | 11781 ft | 342 kts | 342° |
| 2026-04-20 17:55 | 35.66383 | 25.02925 | 12502 ft | 345 kts | 342° |
| 2026-04-20 17:55 | 35.68687 | 25.02080 | 13247 ft | 347 kts | 342° |
| 2026-04-20 17:55 | 35.71007 | 25.01230 | 13946 ft | 350 kts | 341° |
| 2026-04-20 17:56 | 35.73332 | 25.00303 | 14586 ft | 352 kts | 339° |
| 2026-04-20 17:56 | 35.75632 | 24.99262 | 15216 ft | 354 kts | 337° |
| 2026-04-20 17:56 | 35.77960 | 24.98139 | 15864 ft | 356 kts | 336° |
| 2026-04-20 17:56 | 35.80240 | 24.97019 | 16490 ft | 358 kts | 336° |
| 2026-04-20 17:57 | 35.82596 | 24.95869 | 17131 ft | 361 kts | 336° |
| 2026-04-20 17:57 | 35.84939 | 24.94740 | 17759 ft | 363 kts | 336° |
| 2026-04-20 17:57 | 35.87307 | 24.93611 | 18369 ft | 366 kts | 336° |
| 2026-04-20 17:57 | 35.89690 | 24.92483 | 18922 ft | 368 kts | 336° |
| 2026-04-20 17:58 | 35.92095 | 24.91351 | 19473 ft | 370 kts | 336° |
| 2026-04-20 17:58 | 35.94508 | 24.90217 | 20021 ft | 373 kts | 336° |
| 2026-04-20 17:58 | 35.96940 | 24.89074 | 20566 ft | 375 kts | 336° |
| 2026-04-20 17:58 | 35.99384 | 24.87924 | 21093 ft | 377 kts | 336° |
| 2026-04-20 17:59 | 36.01837 | 24.86765 | 21612 ft | 379 kts | 336° |
| 2026-04-20 17:59 | 36.04295 | 24.85565 | 22109 ft | 380 kts | 332° |
| 2026-04-20 17:59 | 36.06588 | 24.83957 | 22588 ft | 379 kts | 323° |
| 2026-04-20 17:59 | 36.08668 | 24.81949 | 23077 ft | 380 kts | 319° |
| 2026-04-20 18:00 | 36.10036 | 24.80588 | 23401 ft | 382 kts | 319° |
| 2026-04-20 18:00 | 36.12115 | 24.78527 | 23833 ft | 384 kts | 319° |
| 2026-04-20 18:00 | 36.14201 | 24.76464 | 24234 ft | 385 kts | 320° |
| 2026-04-20 18:00 | 36.16299 | 24.74387 | 24622 ft | 387 kts | 319° |
| 2026-04-20 18:01 | 36.18401 | 24.72300 | 25011 ft | 388 kts | 319° |
| 2026-04-20 18:01 | 36.20512 | 24.70204 | 25399 ft | 390 kts | 319° |
| 2026-04-20 18:01 | 36.22633 | 24.68096 | 25789 ft | 392 kts | 319° |
| 2026-04-20 18:01 | 36.24764 | 24.65977 | 26163 ft | 393 kts | 319° |
| 2026-04-20 18:02 | 36.26927 | 24.63824 | 26543 ft | 395 kts | 319° |
| 2026-04-20 18:02 | 36.29075 | 24.61685 | 26907 ft | 397 kts | 319° |
| 2026-04-20 18:02 | 36.31234 | 24.59533 | 27263 ft | 399 kts | 319° |
| 2026-04-20 18:02 | 36.33397 | 24.57373 | 27610 ft | 401 kts | 319° |
| 2026-04-20 18:03 | 36.35577 | 24.55195 | 27951 ft | 403 kts | 319° |
| 2026-04-20 18:03 | 36.37761 | 24.53009 | 28284 ft | 405 kts | 319° |
| 2026-04-20 18:03 | 36.39960 | 24.50808 | 28593 ft | 407 kts | 319° |
| 2026-04-20 18:03 | 36.42175 | 24.48591 | 28901 ft | 409 kts | 319° |
| 2026-04-20 18:04 | 36.44391 | 24.46367 | 29203 ft | 412 kts | 319° |
| 2026-04-20 18:04 | 36.46626 | 24.44122 | 29506 ft | 414 kts | 319° |
| 2026-04-20 18:04 | 36.48867 | 24.41873 | 29805 ft | 416 kts | 319° |
| 2026-04-20 18:04 | 36.51123 | 24.39613 | 30125 ft | 416 kts | 319° |
| 2026-04-20 18:05 | 36.55619 | 24.35102 | 30864 ft | 414 kts | 319° |
| 2026-04-20 18:05 | 36.57853 | 24.32853 | 31224 ft | 413 kts | 319° |
| 2026-04-20 18:05 | 36.60081 | 24.30610 | 31596 ft | 411 kts | 319° |
| 2026-04-20 18:06 | 36.62302 | 24.28373 | 31966 ft | 410 kts | 319° |
| 2026-04-20 18:06 | 36.64517 | 24.26141 | 32337 ft | 409 kts | 319° |
| 2026-04-20 18:06 | 36.66726 | 24.23911 | 32704 ft | 408 kts | 319° |
| 2026-04-20 18:06 | 36.68928 | 24.21684 | 33074 ft | 407 kts | 319° |
| 2026-04-20 18:07 | 36.71120 | 24.19466 | 33444 ft | 406 kts | 319° |
| 2026-04-20 18:07 | 36.73306 | 24.17254 | 33815 ft | 404 kts | 319° |
| 2026-04-20 18:07 | 36.75485 | 24.15046 | 34158 ft | 403 kts | 319° |
| 2026-04-20 18:07 | 36.77664 | 24.12838 | 34435 ft | 403 kts | 319° |
| 2026-04-20 18:08 | 36.79841 | 24.10631 | 34689 ft | 403 kts | 319° |
| 2026-04-20 18:08 | 36.82016 | 24.08419 | 34931 ft | 404 kts | 319° |
| 2026-04-20 18:08 | 36.84195 | 24.06201 | 35159 ft | 404 kts | 319° |
| 2026-04-20 18:08 | 36.86376 | 24.03983 | 35382 ft | 405 kts | 319° |
| 2026-04-20 18:09 | 36.88567 | 24.01756 | 35594 ft | 406 kts | 319° |
| 2026-04-20 18:09 | 36.90755 | 23.99531 | 35809 ft | 406 kts | 319° |
| 2026-04-20 18:09 | 36.92948 | 23.97304 | 35965 ft | 407 kts | 319° |
| 2026-04-20 18:09 | 36.95146 | 23.95070 | 36003 ft | 407 kts | 319° |
| 2026-04-20 18:10 | 36.99562 | 23.90562 | 36003 ft | 407 kts | 319° |
| 2026-04-20 18:10 | 37.03954 | 23.86076 | 35998 ft | 407 kts | 319° |
| 2026-04-20 18:11 | 37.08348 | 23.81587 | 35996 ft | 408 kts | 319° |
| 2026-04-20 18:11 | 37.12741 | 23.77097 | 35996 ft | 408 kts | 319° |
| 2026-04-20 18:12 | 37.17135 | 23.72592 | 35995 ft | 408 kts | 319° |
| 2026-04-20 18:12 | 37.21522 | 23.68080 | 35994 ft | 408 kts | 319° |
| 2026-04-20 18:13 | 37.25911 | 23.63559 | 35995 ft | 408 kts | 319° |
| 2026-04-20 18:13 | 37.30295 | 23.59033 | 35994 ft | 408 kts | 319° |
| 2026-04-20 18:14 | 37.34690 | 23.54505 | 35994 ft | 408 kts | 319° |
| 2026-04-20 18:14 | 37.39086 | 23.49971 | 35994 ft | 409 kts | 319° |
| 2026-04-20 18:15 | 37.43473 | 23.45429 | 35996 ft | 409 kts | 319° |
| 2026-04-20 18:15 | 37.47866 | 23.40870 | 35996 ft | 409 kts | 319° |
| 2026-04-20 18:16 | 37.52258 | 23.36310 | 35996 ft | 409 kts | 319° |
| 2026-04-20 18:16 | 37.56645 | 23.31736 | 35996 ft | 409 kts | 319° |
| 2026-04-20 18:17 | 37.61037 | 23.27163 | 35996 ft | 410 kts | 319° |
| 2026-04-20 18:17 | 37.65426 | 23.22578 | 35998 ft | 410 kts | 319° |
| 2026-04-20 18:18 | 37.69844 | 23.17955 | 35999 ft | 410 kts | 319° |
| 2026-04-20 18:18 | 37.74240 | 23.13365 | 36000 ft | 410 kts | 319° |
| 2026-04-20 18:19 | 37.78633 | 23.08764 | 35998 ft | 410 kts | 319° |
| 2026-04-20 18:19 | 37.83022 | 23.04151 | 36000 ft | 410 kts | 319° |
| 2026-04-20 18:20 | 37.87405 | 22.99529 | 35998 ft | 410 kts | 319° |
| 2026-04-20 18:20 | 37.91782 | 22.94887 | 35998 ft | 410 kts | 316° |
| 2026-04-20 18:21 | 37.95388 | 22.89334 | 35998 ft | 409 kts | 305° |
| 2026-04-20 18:21 | 37.98647 | 22.83406 | 35995 ft | 410 kts | 305° |
| 2026-04-20 18:22 | 38.01909 | 22.77482 | 35998 ft | 410 kts | 305° |
| 2026-04-20 18:22 | 38.05173 | 22.71549 | 36004 ft | 410 kts | 305° |
| 2026-04-20 18:23 | 38.08434 | 22.65615 | 36006 ft | 410 kts | 305° |
| 2026-04-20 18:23 | 38.11688 | 22.59658 | 36008 ft | 410 kts | 305° |
| 2026-04-20 18:24 | 38.14944 | 22.53697 | 36014 ft | 411 kts | 305° |
| 2026-04-20 18:24 | 38.18196 | 22.47731 | 36016 ft | 411 kts | 305° |
| 2026-04-20 18:25 | 38.21445 | 22.41760 | 36018 ft | 411 kts | 305° |
| 2026-04-20 18:25 | 38.24692 | 22.35787 | 36026 ft | 411 kts | 305° |
| 2026-04-20 18:26 | 38.27965 | 22.29766 | 36032 ft | 411 kts | 305° |
| 2026-04-20 18:26 | 38.31205 | 22.23779 | 36035 ft | 411 kts | 305° |
| 2026-04-20 18:27 | 38.34444 | 22.17783 | 36039 ft | 411 kts | 305° |
| 2026-04-20 18:27 | 38.37678 | 22.11780 | 36043 ft | 411 kts | 305° |
| 2026-04-20 18:28 | 38.40912 | 22.05768 | 36045 ft | 411 kts | 305° |
| 2026-04-20 18:28 | 38.44146 | 21.99746 | 36050 ft | 411 kts | 304° |
| 2026-04-20 18:29 | 38.47375 | 21.93722 | 36053 ft | 411 kts | 304° |
| 2026-04-20 18:29 | 38.50600 | 21.87697 | 36056 ft | 411 kts | 304° |
| 2026-04-20 18:30 | 38.53822 | 21.81666 | 36059 ft | 411 kts | 304° |
| 2026-04-20 18:30 | 38.57040 | 21.75629 | 36059 ft | 411 kts | 304° |
| 2026-04-20 18:31 | 38.60264 | 21.69581 | 36056 ft | 411 kts | 304° |
| 2026-04-20 18:31 | 38.63481 | 21.63525 | 36054 ft | 412 kts | 304° |
| 2026-04-20 18:32 | 38.66698 | 21.57461 | 36057 ft | 412 kts | 304° |
| 2026-04-20 18:32 | 38.69912 | 21.51389 | 36062 ft | 412 kts | 304° |
| 2026-04-20 18:33 | 38.72598 | 21.46293 | 36064 ft | 412 kts | 304° |
| 2026-04-20 18:33 | 38.75811 | 21.40196 | 36064 ft | 412 kts | 304° |
| 2026-04-20 18:34 | 38.79016 | 21.34101 | 36066 ft | 412 kts | 304° |
| 2026-04-20 18:34 | 38.82220 | 21.28005 | 36069 ft | 412 kts | 304° |
| 2026-04-20 18:35 | 38.85422 | 21.21901 | 36071 ft | 412 kts | 304° |
| 2026-04-20 18:35 | 38.88621 | 21.15796 | 36072 ft | 412 kts | 304° |
| 2026-04-20 18:36 | 38.91812 | 21.09690 | 36075 ft | 412 kts | 304° |
| 2026-04-20 18:36 | 38.94996 | 21.03582 | 36072 ft | 411 kts | 304° |
| 2026-04-20 18:37 | 38.98174 | 20.97470 | 36070 ft | 411 kts | 304° |
| 2026-04-20 18:37 | 39.01431 | 20.91428 | 36064 ft | 411 kts | 306° |
| 2026-04-20 18:38 | 39.04807 | 20.85487 | 36062 ft | 411 kts | 306° |
| 2026-04-20 18:38 | 39.08212 | 20.79506 | 36060 ft | 411 kts | 306° |
| 2026-04-20 18:39 | 39.11556 | 20.73526 | 36060 ft | 412 kts | 306° |
| 2026-04-20 18:39 | 39.14886 | 20.67530 | 36061 ft | 412 kts | 305° |
| 2026-04-20 18:40 | 39.18215 | 20.61526 | 36057 ft | 412 kts | 305° |
| 2026-04-20 18:40 | 39.21551 | 20.55514 | 36060 ft | 412 kts | 305° |
| 2026-04-20 18:41 | 39.24885 | 20.49500 | 36057 ft | 412 kts | 305° |
| 2026-04-20 18:41 | 39.28204 | 20.43495 | 36058 ft | 412 kts | 305° |
| 2026-04-20 18:42 | 39.31533 | 20.37463 | 36054 ft | 412 kts | 305° |
| 2026-04-20 18:42 | 39.34853 | 20.31435 | 36055 ft | 412 kts | 305° |
| 2026-04-20 18:43 | 39.38169 | 20.25383 | 36054 ft | 412 kts | 305° |
| 2026-04-20 18:43 | 39.40387 | 20.21343 | 36048 ft | 412 kts | 305° |
| 2026-04-20 18:44 | 39.41968 | 20.18463 | 36041 ft | 412 kts | 305° |
| 2026-04-20 18:44 | 39.45280 | 20.12413 | 36039 ft | 412 kts | 305° |
| 2026-04-20 18:45 | 39.48548 | 20.06420 | 36036 ft | 412 kts | 305° |
| 2026-04-20 18:45 | 39.51845 | 20.00367 | 36037 ft | 412 kts | 305° |
| 2026-04-20 18:46 | 39.55152 | 19.94304 | 36037 ft | 412 kts | 305° |
| 2026-04-20 18:46 | 39.58450 | 19.88239 | 36039 ft | 412 kts | 305° |
| 2026-04-20 18:47 | 39.61743 | 19.82170 | 36040 ft | 411 kts | 304° |
| 2026-04-20 18:47 | 39.65049 | 19.76060 | 36041 ft | 411 kts | 304° |
| 2026-04-20 18:48 | 39.68332 | 19.69976 | 36039 ft | 411 kts | 304° |
| 2026-04-20 18:48 | 39.71608 | 19.63892 | 36041 ft | 411 kts | 304° |
| 2026-04-20 18:49 | 39.74885 | 19.57806 | 36040 ft | 411 kts | 304° |
| 2026-04-20 18:49 | 39.78155 | 19.51719 | 36038 ft | 411 kts | 304° |
| 2026-04-20 18:50 | 39.81421 | 19.45621 | 36040 ft | 411 kts | 304° |
| 2026-04-20 18:50 | 39.84684 | 19.39528 | 36039 ft | 410 kts | 304° |
| 2026-04-20 18:51 | 39.87942 | 19.33424 | 36039 ft | 410 kts | 304° |
| 2026-04-20 18:51 | 39.91198 | 19.27319 | 36041 ft | 410 kts | 304° |
| 2026-04-20 18:52 | 39.94448 | 19.21213 | 36041 ft | 410 kts | 304° |
| 2026-04-20 18:52 | 39.97687 | 19.15107 | 36042 ft | 410 kts | 304° |
| 2026-04-20 18:53 | 40.00922 | 19.08992 | 36041 ft | 409 kts | 304° |
| 2026-04-20 18:53 | 40.04149 | 19.02882 | 36044 ft | 409 kts | 304° |
| 2026-04-20 18:54 | 40.07368 | 18.96765 | 36040 ft | 408 kts | 304° |
| 2026-04-20 18:54 | 40.10545 | 18.90632 | 36042 ft | 408 kts | 304° |
| 2026-04-20 18:55 | 40.13709 | 18.84488 | 36043 ft | 407 kts | 304° |
| 2026-04-20 18:55 | 40.16882 | 18.78311 | 36039 ft | 406 kts | 304° |
| 2026-04-20 18:56 | 40.20037 | 18.72185 | 36039 ft | 406 kts | 304° |
| 2026-04-20 18:56 | 40.23185 | 18.66070 | 36038 ft | 405 kts | 304° |
| 2026-04-20 18:57 | 40.26320 | 18.59955 | 36037 ft | 404 kts | 304° |
| 2026-04-20 18:57 | 40.29447 | 18.53850 | 36035 ft | 403 kts | 304° |
| 2026-04-20 18:58 | 40.32564 | 18.47752 | 36033 ft | 402 kts | 304° |
| 2026-04-20 18:58 | 40.35673 | 18.41659 | 36033 ft | 401 kts | 304° |
| 2026-04-20 18:59 | 40.38761 | 18.35577 | 36027 ft | 400 kts | 304° |
| 2026-04-20 18:59 | 40.41845 | 18.29505 | 36026 ft | 400 kts | 304° |
| 2026-04-20 19:00 | 40.44899 | 18.23487 | 36024 ft | 399 kts | 304° |
| 2026-04-20 19:00 | 40.47964 | 18.17419 | 36022 ft | 398 kts | 304° |
| 2026-04-20 19:01 | 40.51023 | 18.11357 | 36005 ft | 398 kts | 304° |
| 2026-04-20 19:01 | 40.54076 | 18.05291 | 35999 ft | 397 kts | 304° |
| 2026-04-20 19:02 | 40.57120 | 17.99231 | 35989 ft | 397 kts | 303° |
| 2026-04-20 19:02 | 40.60156 | 17.93178 | 35991 ft | 396 kts | 303° |
| 2026-04-20 19:03 | 40.63192 | 17.87126 | 35995 ft | 396 kts | 303° |
| 2026-04-20 19:03 | 40.66243 | 17.81030 | 35991 ft | 396 kts | 303° |
| 2026-04-20 19:04 | 40.69265 | 17.74968 | 35995 ft | 396 kts | 303° |
| 2026-04-20 19:04 | 40.72282 | 17.68899 | 35997 ft | 396 kts | 303° |
| 2026-04-20 19:05 | 40.75298 | 17.62828 | 35999 ft | 396 kts | 303° |
| 2026-04-20 19:05 | 40.78304 | 17.56799 | 36000 ft | 396 kts | 303° |
| 2026-04-20 19:06 | 40.81319 | 17.50720 | 35997 ft | 396 kts | 303° |
| 2026-04-20 19:06 | 40.83813 | 17.45658 | 35999 ft | 396 kts | 303° |
| 2026-04-20 19:07 | 40.86810 | 17.39564 | 35997 ft | 396 kts | 303° |
| 2026-04-20 19:07 | 40.89814 | 17.33467 | 35996 ft | 396 kts | 303° |
| 2026-04-20 19:08 | 40.94311 | 17.24317 | 36000 ft | 396 kts | 303° |
| 2026-04-20 19:09 | 40.97303 | 17.18206 | 35998 ft | 396 kts | 303° |
| 2026-04-20 19:09 | 41.00248 | 17.12185 | 35997 ft | 396 kts | 303° |
| 2026-04-20 19:10 | 41.03255 | 17.06020 | 35985 ft | 396 kts | 303° |
| 2026-04-20 19:10 | 41.06239 | 16.99889 | 35980 ft | 396 kts | 303° |
| 2026-04-20 19:11 | 41.09225 | 16.93755 | 35978 ft | 396 kts | 303° |
| 2026-04-20 19:11 | 41.12205 | 16.87613 | 35979 ft | 396 kts | 302° |
| 2026-04-20 19:12 | 41.15184 | 16.81458 | 35979 ft | 396 kts | 302° |
| 2026-04-20 19:12 | 41.18161 | 16.75301 | 35981 ft | 396 kts | 302° |
| 2026-04-20 19:13 | 41.21133 | 16.69135 | 35981 ft | 396 kts | 302° |
| 2026-04-20 19:13 | 41.24101 | 16.62967 | 35982 ft | 396 kts | 302° |
| 2026-04-20 19:14 | 41.27064 | 16.56794 | 35983 ft | 396 kts | 302° |
| 2026-04-20 19:14 | 41.30029 | 16.50611 | 35983 ft | 396 kts | 302° |
| 2026-04-20 19:15 | 41.32985 | 16.44424 | 35982 ft | 396 kts | 302° |
| 2026-04-20 19:15 | 41.35939 | 16.38232 | 35980 ft | 396 kts | 302° |
| 2026-04-20 19:16 | 41.38890 | 16.32033 | 35980 ft | 396 kts | 302° |
| 2026-04-20 19:16 | 41.41843 | 16.25833 | 35977 ft | 396 kts | 302° |
| 2026-04-20 19:17 | 41.44791 | 16.19631 | 35979 ft | 396 kts | 302° |
| 2026-04-20 19:17 | 41.47731 | 16.13411 | 35978 ft | 396 kts | 302° |
| 2026-04-20 19:18 | 41.50668 | 16.07184 | 35983 ft | 396 kts | 302° |
| 2026-04-20 19:18 | 41.53620 | 16.00920 | 35983 ft | 396 kts | 302° |
| 2026-04-20 19:19 | 41.56550 | 15.94701 | 35984 ft | 396 kts | 302° |
| 2026-04-20 19:19 | 41.59479 | 15.88469 | 35985 ft | 396 kts | 302° |
| 2026-04-20 19:20 | 41.62401 | 15.82232 | 35984 ft | 396 kts | 302° |
| 2026-04-20 19:20 | 41.65316 | 15.75995 | 35985 ft | 396 kts | 301° |
| 2026-04-20 19:21 | 41.68223 | 15.69750 | 35983 ft | 395 kts | 301° |
| 2026-04-20 19:21 | 41.71131 | 15.63511 | 35980 ft | 395 kts | 301° |
| 2026-04-20 19:22 | 41.74038 | 15.57261 | 35978 ft | 395 kts | 301° |
| 2026-04-20 19:22 | 41.76941 | 15.51004 | 35983 ft | 395 kts | 301° |
| 2026-04-20 19:23 | 41.79833 | 15.44746 | 35979 ft | 395 kts | 301° |
| 2026-04-20 19:23 | 41.82728 | 15.38490 | 35969 ft | 395 kts | 301° |
| 2026-04-20 19:24 | 41.85615 | 15.32226 | 35955 ft | 395 kts | 301° |
| 2026-04-20 19:24 | 41.88499 | 15.25951 | 35961 ft | 395 kts | 301° |
| 2026-04-20 19:25 | 41.91404 | 15.19632 | 35954 ft | 395 kts | 301° |
| 2026-04-20 19:25 | 41.94281 | 15.13352 | 35958 ft | 395 kts | 301° |
| 2026-04-20 19:26 | 41.97154 | 15.07067 | 35959 ft | 395 kts | 301° |
| 2026-04-20 19:26 | 42.00026 | 15.00766 | 35961 ft | 395 kts | 301° |
| 2026-04-20 19:27 | 42.02892 | 14.94471 | 35962 ft | 395 kts | 301° |
| 2026-04-20 19:27 | 42.05755 | 14.88168 | 35966 ft | 395 kts | 301° |
| 2026-04-20 19:28 | 42.08611 | 14.81860 | 35969 ft | 395 kts | 301° |
| 2026-04-20 19:28 | 42.11460 | 14.75548 | 35973 ft | 394 kts | 301° |
| 2026-04-20 19:29 | 42.14307 | 14.69235 | 35966 ft | 394 kts | 301° |
| 2026-04-20 19:29 | 42.17157 | 14.62918 | 35965 ft | 394 kts | 301° |
| 2026-04-20 19:30 | 42.20000 | 14.56599 | 35969 ft | 394 kts | 301° |
| 2026-04-20 19:30 | 42.22836 | 14.50275 | 35959 ft | 394 kts | 301° |
| 2026-04-20 19:31 | 42.25669 | 14.43939 | 35959 ft | 394 kts | 300° |
| 2026-04-20 19:31 | 42.28495 | 14.37604 | 35957 ft | 394 kts | 300° |
| 2026-04-20 19:32 | 42.31323 | 14.31253 | 35955 ft | 394 kts | 300° |
| 2026-04-20 19:32 | 42.34146 | 14.24905 | 35952 ft | 394 kts | 300° |
| 2026-04-20 19:33 | 42.36968 | 14.18542 | 35952 ft | 395 kts | 300° |
| 2026-04-20 19:33 | 42.39793 | 14.12171 | 35950 ft | 395 kts | 300° |
| 2026-04-20 19:34 | 42.42630 | 14.05754 | 35949 ft | 395 kts | 300° |
| 2026-04-20 19:34 | 42.45445 | 13.99361 | 35953 ft | 395 kts | 300° |
| 2026-04-20 19:35 | 42.48253 | 13.92961 | 35954 ft | 395 kts | 300° |
| 2026-04-20 19:35 | 42.51063 | 13.86564 | 35958 ft | 395 kts | 300° |
| 2026-04-20 19:36 | 42.53876 | 13.80146 | 35967 ft | 396 kts | 300° |
| 2026-04-20 19:36 | 42.56684 | 13.73723 | 35973 ft | 396 kts | 300° |
| 2026-04-20 19:37 | 42.59491 | 13.67295 | 35980 ft | 396 kts | 300° |
| 2026-04-20 19:37 | 42.62290 | 13.60857 | 35983 ft | 396 kts | 300° |
| 2026-04-20 19:38 | 42.65083 | 13.54422 | 35988 ft | 396 kts | 300° |
| 2026-04-20 19:38 | 42.67871 | 13.47978 | 35990 ft | 395 kts | 300° |
| 2026-04-20 19:39 | 42.70646 | 13.41517 | 35990 ft | 396 kts | 299° |
| 2026-04-20 19:39 | 42.73410 | 13.35038 | 35985 ft | 396 kts | 299° |
| 2026-04-20 19:40 | 42.76166 | 13.28551 | 35993 ft | 396 kts | 299° |
| 2026-04-20 19:40 | 42.78476 | 13.23109 | 35991 ft | 397 kts | 299° |
| 2026-04-20 19:41 | 42.81234 | 13.16605 | 35991 ft | 397 kts | 299° |
| 2026-04-20 19:41 | 42.83993 | 13.10087 | 35995 ft | 397 kts | 299° |
| 2026-04-20 19:42 | 42.86741 | 13.03575 | 35998 ft | 397 kts | 298° |
| 2026-04-20 19:42 | 42.89483 | 12.97050 | 35996 ft | 396 kts | 298° |
| 2026-04-20 19:43 | 42.91707 | 12.91748 | 35992 ft | 397 kts | 298° |
| 2026-04-20 19:43 | 42.94907 | 12.84107 | 35978 ft | 397 kts | 298° |
| 2026-04-20 19:44 | 42.97647 | 12.77555 | 35978 ft | 397 kts | 298° |
| 2026-04-20 19:44 | 43.00380 | 12.70998 | 35974 ft | 398 kts | 298° |
| 2026-04-20 19:45 | 43.03105 | 12.64423 | 35971 ft | 398 kts | 298° |
| 2026-04-20 19:45 | 43.05837 | 12.57839 | 35972 ft | 398 kts | 298° |
| 2026-04-20 19:46 | 43.08567 | 12.51253 | 35972 ft | 398 kts | 298° |
| 2026-04-20 19:46 | 43.11305 | 12.44659 | 35977 ft | 398 kts | 298° |
| 2026-04-20 19:47 | 43.14033 | 12.38052 | 35979 ft | 399 kts | 298° |
| 2026-04-20 19:47 | 43.16748 | 12.31435 | 35982 ft | 399 kts | 298° |
| 2026-04-20 19:48 | 43.19474 | 12.24773 | 35987 ft | 399 kts | 298° |
| 2026-04-20 19:48 | 43.22191 | 12.18148 | 35987 ft | 398 kts | 298° |
| 2026-04-20 19:49 | 43.24901 | 12.11520 | 35989 ft | 398 kts | 298° |
| 2026-04-20 19:49 | 43.27602 | 12.04892 | 35990 ft | 398 kts | 298° |
| 2026-04-20 19:50 | 43.30298 | 11.98252 | 35992 ft | 398 kts | 298° |
| 2026-04-20 19:50 | 43.32990 | 11.91612 | 35988 ft | 398 kts | 298° |
| 2026-04-20 19:51 | 43.35678 | 11.84974 | 35989 ft | 398 kts | 298° |
| 2026-04-20 19:51 | 43.38366 | 11.78328 | 35991 ft | 398 kts | 298° |
| 2026-04-20 19:52 | 43.41048 | 11.71683 | 35990 ft | 397 kts | 298° |
| 2026-04-20 19:52 | 43.43725 | 11.65035 | 35986 ft | 397 kts | 297° |
| 2026-04-20 19:53 | 43.46389 | 11.58373 | 35985 ft | 397 kts | 297° |
| 2026-04-20 19:53 | 43.49050 | 11.51708 | 35985 ft | 397 kts | 297° |
| 2026-04-20 19:54 | 43.51709 | 11.45051 | 35981 ft | 397 kts | 297° |
| 2026-04-20 19:54 | 43.54369 | 11.38374 | 35976 ft | 397 kts | 297° |
| 2026-04-20 19:55 | 43.57032 | 11.31710 | 35973 ft | 397 kts | 298° |
| 2026-04-20 19:55 | 43.59752 | 11.25023 | 35963 ft | 397 kts | 298° |
| 2026-04-20 19:56 | 43.62449 | 11.18375 | 35962 ft | 397 kts | 298° |
| 2026-04-20 19:56 | 43.65135 | 11.11727 | 35959 ft | 397 kts | 298° |
| 2026-04-20 19:57 | 43.67816 | 11.05062 | 35960 ft | 397 kts | 297° |
| 2026-04-20 19:57 | 43.70493 | 10.98399 | 35960 ft | 397 kts | 297° |
| 2026-04-20 19:58 | 43.73167 | 10.91727 | 35960 ft | 397 kts | 297° |
| 2026-04-20 19:58 | 43.75836 | 10.85054 | 35960 ft | 397 kts | 297° |
| 2026-04-20 19:59 | 43.78503 | 10.78375 | 35973 ft | 396 kts | 297° |
| 2026-04-20 19:59 | 43.81009 | 10.72086 | 35978 ft | 396 kts | 297° |
| 2026-04-20 20:00 | 43.83657 | 10.65394 | 35985 ft | 396 kts | 297° |
| 2026-04-20 20:00 | 43.86306 | 10.58700 | 35993 ft | 396 kts | 297° |
| 2026-04-20 20:01 | 43.88950 | 10.52004 | 35993 ft | 396 kts | 297° |
| 2026-04-20 20:01 | 43.91588 | 10.45304 | 35988 ft | 396 kts | 297° |
| 2026-04-20 20:02 | 43.94242 | 10.38545 | 35987 ft | 396 kts | 297° |
| 2026-04-20 20:02 | 43.96430 | 10.32961 | 36007 ft | 397 kts | 297° |
| 2026-04-20 20:03 | 43.98681 | 10.27216 | 35996 ft | 396 kts | 297° |
| 2026-04-20 20:03 | 44.01303 | 10.20489 | 35994 ft | 396 kts | 297° |
| 2026-04-20 20:04 | 44.03921 | 10.13755 | 35988 ft | 396 kts | 297° |
| 2026-04-20 20:04 | 44.06538 | 10.07027 | 35979 ft | 396 kts | 297° |
| 2026-04-20 20:05 | 44.09162 | 10.00287 | 35982 ft | 396 kts | 297° |
| 2026-04-20 20:05 | 44.11772 | 9.93548 | 35986 ft | 396 kts | 297° |
| 2026-04-20 20:06 | 44.14375 | 9.86793 | 35985 ft | 396 kts | 296° |
| 2026-04-20 20:06 | 44.16973 | 9.80037 | 35984 ft | 396 kts | 296° |
| 2026-04-20 20:07 | 44.19572 | 9.73271 | 35987 ft | 396 kts | 296° |
| 2026-04-20 20:07 | 44.22160 | 9.66516 | 35982 ft | 395 kts | 296° |
| 2026-04-20 20:08 | 44.24742 | 9.59750 | 35976 ft | 395 kts | 296° |
| 2026-04-20 20:08 | 44.27322 | 9.52979 | 35969 ft | 395 kts | 296° |
| 2026-04-20 20:09 | 44.29899 | 9.46196 | 35977 ft | 395 kts | 296° |
| 2026-04-20 20:09 | 44.32476 | 9.39414 | 35974 ft | 395 kts | 296° |
| 2026-04-20 20:10 | 44.35062 | 9.32588 | 35965 ft | 395 kts | 296° |
| 2026-04-20 20:10 | 44.37622 | 9.25805 | 35965 ft | 394 kts | 296° |
| 2026-04-20 20:11 | 44.40177 | 9.19017 | 35964 ft | 395 kts | 296° |
| 2026-04-20 20:11 | 44.42700 | 9.12301 | 35964 ft | 394 kts | 296° |
| 2026-04-20 20:12 | 44.45252 | 9.05517 | 35961 ft | 394 kts | 296° |
| 2026-04-20 20:12 | 44.47792 | 8.98717 | 35963 ft | 394 kts | 296° |
| 2026-04-20 20:13 | 44.51161 | 8.89669 | 35963 ft | 394 kts | 296° |
| 2026-04-20 20:13 | 44.53690 | 8.82860 | 35962 ft | 393 kts | 296° |
| 2026-04-20 20:14 | 44.56211 | 8.76057 | 35957 ft | 393 kts | 296° |
| 2026-04-20 20:14 | 44.58743 | 8.69202 | 35954 ft | 393 kts | 296° |
| 2026-04-20 20:15 | 44.61323 | 8.62435 | 35949 ft | 394 kts | 298° |
| 2026-04-20 20:15 | 44.64093 | 8.55801 | 35940 ft | 394 kts | 299° |
| 2026-04-20 20:16 | 44.66888 | 8.49183 | 35931 ft | 394 kts | 298° |
| 2026-04-20 20:16 | 44.69644 | 8.42535 | 35926 ft | 394 kts | 298° |
| 2026-04-20 20:17 | 44.72378 | 8.35864 | 35922 ft | 394 kts | 298° |
| 2026-04-20 20:17 | 44.75106 | 8.29177 | 35923 ft | 394 kts | 298° |
| 2026-04-20 20:18 | 44.77835 | 8.22474 | 35918 ft | 395 kts | 298° |
| 2026-04-20 20:18 | 44.80565 | 8.15768 | 35915 ft | 395 kts | 298° |
| 2026-04-20 20:19 | 44.83297 | 8.09049 | 35909 ft | 395 kts | 298° |
| 2026-04-20 20:19 | 44.86031 | 8.02317 | 35910 ft | 396 kts | 298° |
| 2026-04-20 20:20 | 44.88761 | 7.95578 | 35909 ft | 396 kts | 297° |
| 2026-04-20 20:20 | 44.91482 | 7.88819 | 35904 ft | 396 kts | 297° |
| 2026-04-20 20:21 | 44.94104 | 7.82150 | 35907 ft | 397 kts | 296° |
| 2026-04-20 20:21 | 44.95745 | 7.77756 | 35910 ft | 397 kts | 296° |
| 2026-04-20 20:22 | 44.98324 | 7.70725 | 35914 ft | 397 kts | 296° |
| 2026-04-20 20:22 | 45.00886 | 7.63763 | 35912 ft | 397 kts | 296° |
| 2026-04-20 20:23 | 45.03451 | 7.56837 | 35919 ft | 398 kts | 296° |
| 2026-04-20 20:23 | 45.06017 | 7.49907 | 36001 ft | 398 kts | 296° |
| 2026-04-20 20:24 | 45.08573 | 7.42975 | 36027 ft | 398 kts | 296° |
| 2026-04-20 20:24 | 45.11131 | 7.36011 | 36033 ft | 399 kts | 296° |
| 2026-04-20 20:25 | 45.13687 | 7.29043 | 36033 ft | 399 kts | 296° |
| 2026-04-20 20:25 | 45.16239 | 7.22063 | 36032 ft | 399 kts | 296° |
| 2026-04-20 20:26 | 45.18757 | 7.15038 | 36025 ft | 399 kts | 292° |
| 2026-04-20 20:26 | 45.20855 | 7.07757 | 36009 ft | 399 kts | 291° |
| 2026-04-20 20:27 | 45.22957 | 7.00466 | 36000 ft | 399 kts | 291° |
| 2026-04-20 20:27 | 45.25061 | 6.93168 | 35995 ft | 400 kts | 291° |
| 2026-04-20 20:28 | 45.27157 | 6.85862 | 35991 ft | 400 kts | 291° |
| 2026-04-20 20:28 | 45.29249 | 6.78528 | 35993 ft | 400 kts | 291° |
| 2026-04-20 20:29 | 45.31343 | 6.71153 | 36007 ft | 400 kts | 291° |
| 2026-04-20 20:29 | 45.33430 | 6.63813 | 36014 ft | 400 kts | 291° |
| 2026-04-20 20:30 | 45.35507 | 6.56480 | 36016 ft | 400 kts | 291° |
| 2026-04-20 20:30 | 45.37580 | 6.49135 | 36017 ft | 400 kts | 291° |
| 2026-04-20 20:31 | 45.39432 | 6.41696 | 36017 ft | 399 kts | 285° |
| 2026-04-20 20:31 | 45.40832 | 6.34046 | 36018 ft | 399 kts | 285° |
| 2026-04-20 20:32 | 45.42234 | 6.26401 | 36013 ft | 399 kts | 285° |
| 2026-04-20 20:32 | 45.43627 | 6.18775 | 36018 ft | 399 kts | 285° |
| 2026-04-20 20:33 | 45.45021 | 6.11132 | 36015 ft | 398 kts | 285° |
| 2026-04-20 20:33 | 45.46407 | 6.03487 | 36018 ft | 398 kts | 285° |
| 2026-04-20 20:34 | 45.47782 | 5.95856 | 36013 ft | 398 kts | 285° |
| 2026-04-20 20:34 | 45.49214 | 5.88241 | 36012 ft | 398 kts | 286° |
| 2026-04-20 20:35 | 45.50702 | 5.80648 | 36010 ft | 397 kts | 286° |
| 2026-04-20 20:35 | 45.52168 | 5.73047 | 36017 ft | 398 kts | 285° |
| 2026-04-20 20:36 | 45.53620 | 5.65428 | 36033 ft | 398 kts | 285° |
| 2026-04-20 20:36 | 45.55062 | 5.57812 | 36030 ft | 398 kts | 285° |
| 2026-04-20 20:37 | 45.56502 | 5.50142 | 36033 ft | 398 kts | 285° |
| 2026-04-20 20:37 | 45.57823 | 5.42484 | 36036 ft | 398 kts | 284° |
| 2026-04-20 20:38 | 45.59103 | 5.34798 | 36039 ft | 398 kts | 284° |
| 2026-04-20 20:38 | 45.60395 | 5.27125 | 36041 ft | 398 kts | 284° |
| 2026-04-20 20:39 | 45.61697 | 5.19461 | 36040 ft | 397 kts | 284° |
| 2026-04-20 20:39 | 45.63001 | 5.11786 | 36039 ft | 397 kts | 284° |
| 2026-04-20 20:40 | 45.64295 | 5.04113 | 36041 ft | 397 kts | 284° |
| 2026-04-20 20:40 | 45.65580 | 4.96423 | 36065 ft | 397 kts | 284° |
| 2026-04-20 20:41 | 45.66852 | 4.88734 | 36067 ft | 397 kts | 284° |
| 2026-04-20 20:41 | 45.68128 | 4.81050 | 36068 ft | 397 kts | 284° |
| 2026-04-20 20:42 | 45.69400 | 4.73357 | 36067 ft | 397 kts | 284° |
| 2026-04-20 20:42 | 45.70668 | 4.65666 | 36065 ft | 397 kts | 284° |
| 2026-04-20 20:43 | 45.71931 | 4.57968 | 36063 ft | 397 kts | 284° |
| 2026-04-20 20:43 | 45.73183 | 4.50259 | 36068 ft | 398 kts | 283° |
| 2026-04-20 20:44 | 45.74433 | 4.42561 | 36068 ft | 397 kts | 283° |
| 2026-04-20 20:44 | 45.75689 | 4.34801 | 36069 ft | 397 kts | 283° |
| 2026-04-20 20:45 | 45.76930 | 4.27085 | 36071 ft | 397 kts | 283° |
| 2026-04-20 20:45 | 45.78164 | 4.19366 | 36072 ft | 398 kts | 283° |
| 2026-04-20 20:46 | 45.79183 | 4.12942 | 36077 ft | 398 kts | 283° |
| 2026-04-20 20:46 | 45.80404 | 4.05214 | 36077 ft | 398 kts | 283° |
| 2026-04-20 20:47 | 45.81627 | 3.97478 | 36077 ft | 398 kts | 283° |
| 2026-04-20 20:47 | 45.82846 | 3.89733 | 36077 ft | 398 kts | 283° |
| 2026-04-20 20:48 | 45.84060 | 3.81985 | 36072 ft | 398 kts | 283° |
| 2026-04-20 20:48 | 45.85275 | 3.74226 | 36071 ft | 399 kts | 283° |
| 2026-04-20 20:49 | 45.86481 | 3.66455 | 36069 ft | 399 kts | 283° |
| 2026-04-20 20:49 | 45.87671 | 3.58678 | 36067 ft | 399 kts | 283° |
| 2026-04-20 20:50 | 45.88881 | 3.50839 | 36066 ft | 399 kts | 283° |
| 2026-04-20 20:50 | 45.90139 | 3.43082 | 36065 ft | 399 kts | 284° |
| 2026-04-20 20:51 | 45.91403 | 3.35309 | 36063 ft | 400 kts | 283° |
| 2026-04-20 20:51 | 45.92647 | 3.27529 | 36060 ft | 400 kts | 283° |
| 2026-04-20 20:52 | 45.93877 | 3.19743 | 36069 ft | 400 kts | 283° |
| 2026-04-20 20:52 | 45.95103 | 3.11947 | 36068 ft | 400 kts | 283° |
| 2026-04-20 20:53 | 45.96334 | 3.04158 | 36066 ft | 400 kts | 283° |
| 2026-04-20 20:53 | 45.97560 | 2.96357 | 36068 ft | 400 kts | 283° |
| 2026-04-20 20:54 | 45.98773 | 2.88553 | 36078 ft | 400 kts | 283° |
| 2026-04-20 20:54 | 46.00151 | 2.80809 | 36072 ft | 400 kts | 291° |
| 2026-04-20 20:55 | 46.02413 | 2.73504 | 36072 ft | 400 kts | 294° |
| 2026-04-20 20:55 | 46.04686 | 2.66201 | 36074 ft | 400 kts | 294° |
| 2026-04-20 20:56 | 46.06954 | 2.58892 | 36081 ft | 400 kts | 294° |
| 2026-04-20 20:56 | 46.09222 | 2.51574 | 36073 ft | 400 kts | 293° |
| 2026-04-20 20:57 | 46.11483 | 2.44248 | 36078 ft | 400 kts | 293° |
| 2026-04-20 20:57 | 46.13736 | 2.36914 | 36085 ft | 400 kts | 293° |
| 2026-04-20 20:58 | 46.16000 | 2.29535 | 36082 ft | 400 kts | 293° |
| 2026-04-20 20:58 | 46.18248 | 2.22187 | 36083 ft | 400 kts | 293° |
| 2026-04-20 20:59 | 46.20491 | 2.14843 | 36086 ft | 400 kts | 293° |
| 2026-04-20 20:59 | 46.22731 | 2.07495 | 36083 ft | 400 kts | 293° |
| 2026-04-20 21:00 | 46.24966 | 2.00145 | 36086 ft | 400 kts | 293° |
| 2026-04-20 21:00 | 46.27187 | 1.92781 | 36081 ft | 400 kts | 293° |
| 2026-04-20 21:01 | 46.29407 | 1.85405 | 36085 ft | 400 kts | 293° |
| 2026-04-20 21:01 | 46.31625 | 1.78033 | 36082 ft | 400 kts | 293° |
| 2026-04-20 21:02 | 46.33833 | 1.70654 | 36082 ft | 400 kts | 293° |
| 2026-04-20 21:02 | 46.36037 | 1.63273 | 36077 ft | 400 kts | 293° |
| 2026-04-20 21:03 | 46.38239 | 1.55880 | 36084 ft | 400 kts | 293° |
| 2026-04-20 21:03 | 46.40438 | 1.48486 | 36080 ft | 400 kts | 293° |
| 2026-04-20 21:04 | 46.42638 | 1.41074 | 36074 ft | 400 kts | 292° |
| 2026-04-20 21:04 | 46.44823 | 1.33650 | 36079 ft | 400 kts | 292° |
| 2026-04-20 21:05 | 46.47008 | 1.26229 | 36077 ft | 400 kts | 292° |
| 2026-04-20 21:05 | 46.49206 | 1.18746 | 36076 ft | 401 kts | 292° |
| 2026-04-20 21:06 | 46.51385 | 1.11296 | 36078 ft | 401 kts | 292° |
| 2026-04-20 21:06 | 46.53558 | 1.03848 | 36076 ft | 401 kts | 292° |
| 2026-04-20 21:07 | 46.55732 | 0.96383 | 36079 ft | 401 kts | 292° |
| 2026-04-20 21:07 | 46.57897 | 0.88917 | 36079 ft | 401 kts | 292° |
| 2026-04-20 21:08 | 46.60063 | 0.81440 | 36077 ft | 401 kts | 292° |
| 2026-04-20 21:08 | 46.62230 | 0.73946 | 36073 ft | 402 kts | 292° |
| 2026-04-20 21:09 | 46.64390 | 0.66447 | 36074 ft | 402 kts | 292° |
| 2026-04-20 21:09 | 46.66540 | 0.58939 | 36074 ft | 402 kts | 292° |
| 2026-04-20 21:10 | 46.68685 | 0.51424 | 36066 ft | 402 kts | 292° |
| 2026-04-20 21:10 | 46.70822 | 0.43895 | 36073 ft | 402 kts | 292° |
| 2026-04-20 21:11 | 46.72957 | 0.36381 | 36069 ft | 402 kts | 292° |
| 2026-04-20 21:11 | 46.75081 | 0.28833 | 36074 ft | 402 kts | 292° |
| 2026-04-20 21:12 | 46.77211 | 0.21294 | 36073 ft | 402 kts | 292° |
| 2026-04-20 21:12 | 46.79343 | 0.13739 | 36079 ft | 402 kts | 292° |
| 2026-04-20 21:13 | 46.81463 | 0.06181 | 36075 ft | 403 kts | 292° |
| 2026-04-20 21:13 | 46.83591 | -0.01446 | 36086 ft | 403 kts | 291° |
| 2026-04-20 21:14 | 46.85678 | -0.08982 | 36090 ft | 403 kts | 291° |
| 2026-04-20 21:14 | 46.87795 | -0.16617 | 36089 ft | 403 kts | 291° |
| 2026-04-20 21:15 | 46.89902 | -0.24203 | 36088 ft | 403 kts | 291° |
| 2026-04-20 21:15 | 46.92004 | -0.31813 | 36089 ft | 403 kts | 291° |
| 2026-04-20 21:16 | 46.94093 | -0.39426 | 36089 ft | 403 kts | 291° |
| 2026-04-20 21:16 | 46.96178 | -0.47045 | 36087 ft | 403 kts | 291° |
| 2026-04-20 21:17 | 46.98258 | -0.54670 | 36091 ft | 403 kts | 291° |
| 2026-04-20 21:17 | 47.00341 | -0.62303 | 36094 ft | 403 kts | 291° |
| 2026-04-20 21:18 | 47.02416 | -0.69938 | 36094 ft | 403 kts | 291° |
| 2026-04-20 21:18 | 47.04489 | -0.77583 | 36096 ft | 403 kts | 291° |
| 2026-04-20 21:19 | 47.06555 | -0.85232 | 36100 ft | 403 kts | 291° |
| 2026-04-20 21:20 | 47.09303 | -0.95486 | 36099 ft | 403 kts | 291° |
| 2026-04-20 21:20 | 47.11351 | -1.03145 | 36102 ft | 403 kts | 291° |
| 2026-04-20 21:21 | 47.13396 | -1.10812 | 36098 ft | 403 kts | 291° |
| 2026-04-20 21:21 | 47.15438 | -1.18483 | 36098 ft | 403 kts | 291° |
| 2026-04-20 21:22 | 47.17476 | -1.26162 | 36093 ft | 403 kts | 291° |
| 2026-04-20 21:22 | 47.19508 | -1.33843 | 36093 ft | 403 kts | 291° |
| 2026-04-20 21:23 | 47.21530 | -1.41534 | 36098 ft | 403 kts | 290° |
| 2026-04-20 21:23 | 47.23549 | -1.49224 | 36093 ft | 403 kts | 290° |
| 2026-04-20 21:24 | 47.25566 | -1.56916 | 36095 ft | 403 kts | 290° |
| 2026-04-20 21:24 | 47.27573 | -1.64614 | 36098 ft | 403 kts | 290° |
| 2026-04-20 21:25 | 47.29574 | -1.72324 | 36096 ft | 403 kts | 290° |
| 2026-04-20 21:25 | 47.31572 | -1.80030 | 36095 ft | 403 kts | 290° |
| 2026-04-20 21:26 | 47.33566 | -1.87760 | 36101 ft | 403 kts | 290° |
| 2026-04-20 21:26 | 47.36195 | -1.95038 | 36099 ft | 405 kts | 306° |
| 2026-04-20 21:27 | 47.39895 | -2.01336 | 36100 ft | 406 kts | 309° |
| 2026-04-20 21:27 | 47.43619 | -2.07614 | 36100 ft | 407 kts | 308° |
| 2026-04-20 21:28 | 47.47335 | -2.13917 | 36104 ft | 407 kts | 308° |
| 2026-04-20 21:28 | 47.51068 | -2.20272 | 36105 ft | 407 kts | 308° |
| 2026-04-20 21:29 | 47.54777 | -2.26592 | 36109 ft | 407 kts | 308° |
| 2026-04-20 21:29 | 47.58484 | -2.32925 | 36113 ft | 407 kts | 308° |
| 2026-04-20 21:30 | 47.62190 | -2.39262 | 36124 ft | 407 kts | 308° |
| 2026-04-20 21:30 | 47.65898 | -2.45615 | 36126 ft | 407 kts | 308° |
| 2026-04-20 21:31 | 47.69600 | -2.51958 | 36125 ft | 407 kts | 309° |
| 2026-04-20 21:31 | 47.73328 | -2.58299 | 36083 ft | 408 kts | 307° |
| 2026-04-20 21:31 | 47.75115 | -2.61564 | 35821 ft | 406 kts | 306° |
| 2026-04-20 21:32 | 47.76861 | -2.64853 | 35571 ft | 405 kts | 306° |
| 2026-04-20 21:32 | 47.78595 | -2.68151 | 35325 ft | 404 kts | 305° |
| 2026-04-20 21:32 | 47.80324 | -2.71436 | 35080 ft | 403 kts | 306° |
| 2026-04-20 21:32 | 47.82059 | -2.74714 | 34729 ft | 402 kts | 306° |
| 2026-04-20 21:33 | 47.83804 | -2.77986 | 33936 ft | 404 kts | 306° |
| 2026-04-20 21:33 | 47.85563 | -2.81258 | 32978 ft | 406 kts | 306° |
| 2026-04-20 21:33 | 47.87335 | -2.84548 | 32012 ft | 408 kts | 306° |
| 2026-04-20 21:33 | 47.89096 | -2.87820 | 31092 ft | 410 kts | 305° |
| 2026-04-20 21:34 | 47.90880 | -2.91143 | 30064 ft | 412 kts | 305° |
| 2026-04-20 21:34 | 47.92671 | -2.94486 | 29204 ft | 409 kts | 305° |
| 2026-04-20 21:34 | 47.94419 | -2.97750 | 28710 ft | 398 kts | 305° |
| 2026-04-20 21:34 | 47.96126 | -3.00951 | 28086 ft | 391 kts | 305° |
| 2026-04-20 21:35 | 47.97803 | -3.04101 | 27498 ft | 384 kts | 305° |
| 2026-04-20 21:35 | 47.99453 | -3.07204 | 26916 ft | 379 kts | 305° |
| 2026-04-20 21:35 | 48.01076 | -3.10265 | 26337 ft | 373 kts | 305° |
| 2026-04-20 21:35 | 48.02664 | -3.13266 | 25788 ft | 369 kts | 305° |
| 2026-04-20 21:36 | 48.04242 | -3.16252 | 25235 ft | 364 kts | 305° |
| 2026-04-20 21:36 | 48.05807 | -3.19211 | 24689 ft | 361 kts | 305° |
| 2026-04-20 21:36 | 48.07359 | -3.22147 | 24144 ft | 358 kts | 306° |
| 2026-04-20 21:36 | 48.08917 | -3.25097 | 23579 ft | 356 kts | 306° |
| 2026-04-20 21:37 | 48.10429 | -3.27962 | 23035 ft | 354 kts | 306° |
| 2026-04-20 21:37 | 48.11970 | -3.30879 | 22531 ft | 350 kts | 306° |
| 2026-04-20 21:37 | 48.13471 | -3.33728 | 22058 ft | 347 kts | 306° |
| 2026-04-20 21:37 | 48.14956 | -3.36554 | 21606 ft | 344 kts | 306° |
| 2026-04-20 21:38 | 48.16425 | -3.39350 | 21164 ft | 340 kts | 306° |
| 2026-04-20 21:38 | 48.17882 | -3.42128 | 20732 ft | 338 kts | 306° |
| 2026-04-20 21:38 | 48.19332 | -3.44898 | 20314 ft | 337 kts | 306° |
| 2026-04-20 21:38 | 48.20775 | -3.47650 | 19902 ft | 336 kts | 306° |
| 2026-04-20 21:39 | 48.22218 | -3.50403 | 19483 ft | 335 kts | 306° |
| 2026-04-20 21:39 | 48.23653 | -3.53147 | 19074 ft | 334 kts | 306° |
| 2026-04-20 21:39 | 48.25086 | -3.55895 | 18646 ft | 333 kts | 306° |
| 2026-04-20 21:39 | 48.26514 | -3.58629 | 18185 ft | 332 kts | 306° |
| 2026-04-20 21:40 | 48.27935 | -3.61352 | 17739 ft | 331 kts | 306° |
| 2026-04-20 21:40 | 48.29350 | -3.64070 | 17291 ft | 330 kts | 306° |
| 2026-04-20 21:40 | 48.30758 | -3.66782 | 16844 ft | 328 kts | 306° |
| 2026-04-20 21:40 | 48.32158 | -3.69482 | 16391 ft | 327 kts | 306° |
| 2026-04-20 21:41 | 48.33553 | -3.72172 | 15947 ft | 326 kts | 306° |
| 2026-04-20 21:41 | 48.34944 | -3.74857 | 15484 ft | 325 kts | 306° |
| 2026-04-20 21:41 | 48.36329 | -3.77534 | 15024 ft | 324 kts | 306° |
| 2026-04-20 21:41 | 48.37706 | -3.80197 | 14561 ft | 323 kts | 306° |
| 2026-04-20 21:42 | 48.39081 | -3.82858 | 14092 ft | 322 kts | 306° |
| 2026-04-20 21:42 | 48.40452 | -3.85514 | 13591 ft | 321 kts | 307° |
| 2026-04-20 21:42 | 48.41813 | -3.88159 | 13115 ft | 319 kts | 307° |
| 2026-04-20 21:42 | 48.43172 | -3.90795 | 12621 ft | 318 kts | 307° |
| 2026-04-20 21:43 | 48.44524 | -3.93413 | 12153 ft | 316 kts | 307° |
| 2026-04-20 21:43 | 48.45874 | -3.96030 | 11667 ft | 315 kts | 307° |
| 2026-04-20 21:43 | 48.47215 | -3.98637 | 11174 ft | 314 kts | 307° |
| 2026-04-20 21:43 | 48.48546 | -4.01229 | 10818 ft | 309 kts | 307° |
| 2026-04-20 21:44 | 48.49839 | -4.03747 | 10694 ft | 297 kts | 307° |
| 2026-04-20 21:44 | 48.51048 | -4.06199 | 10507 ft | 288 kts | 301° |
| 2026-04-20 21:44 | 48.51892 | -4.08899 | 10424 ft | 284 kts | 288° |
| 2026-04-20 21:44 | 48.52312 | -4.11849 | 10365 ft | 284 kts | 275° |
| 2026-04-20 21:45 | 48.52368 | -4.14832 | 10267 ft | 285 kts | 271° |
| 2026-04-20 21:45 | 48.52393 | -4.17825 | 10141 ft | 285 kts | 271° |
| 2026-04-20 21:45 | 48.52420 | -4.20848 | 9546 ft | 292 kts | 271° |
| 2026-04-20 21:45 | 48.52446 | -4.23891 | 9220 ft | 288 kts | 270° |
| 2026-04-20 21:46 | 48.52471 | -4.26906 | 8747 ft | 288 kts | 270° |
| 2026-04-20 21:46 | 48.52498 | -4.29924 | 8296 ft | 288 kts | 270° |
| 2026-04-20 21:46 | 48.52525 | -4.32942 | 7816 ft | 288 kts | 270° |
| 2026-04-20 21:46 | 48.52549 | -4.35956 | 7376 ft | 287 kts | 270° |
| 2026-04-20 21:47 | 48.52572 | -4.38965 | 6938 ft | 287 kts | 270° |
| 2026-04-20 21:47 | 48.52593 | -4.41975 | 6500 ft | 287 kts | 270° |
| 2026-04-20 21:47 | 48.52612 | -4.45027 | 5758 ft | 296 kts | 270° |
| 2026-04-20 21:47 | 48.52631 | -4.48094 | 5448 ft | 289 kts | 270° |
| 2026-04-20 21:48 | 48.52650 | -4.51052 | 5287 ft | 276 kts | 270° |
| 2026-04-20 21:48 | 48.52551 | -4.53898 | 5003 ft | 269 kts | 257° |
| 2026-04-20 21:48 | 48.51996 | -4.56564 | 4590 ft | 267 kts | 249° |
| 2026-04-20 21:48 | 48.51390 | -4.59204 | 4174 ft | 265 kts | 249° |
| 2026-04-20 21:49 | 48.50787 | -4.61828 | 3793 ft | 264 kts | 249° |
| 2026-04-20 21:49 | 48.50189 | -4.64438 | 3394 ft | 263 kts | 249° |
| 2026-04-20 21:49 | 48.49596 | -4.67031 | 2990 ft | 261 kts | 249° |
| 2026-04-20 21:49 | 48.48770 | -4.69421 | 2534 ft | 256 kts | 224° |
| 2026-04-20 21:50 | 48.47335 | -4.70850 | 2166 ft | 242 kts | 191° |
| 2026-04-20 21:50 | 48.45749 | -4.71096 | 2023 ft | 221 kts | 172° |
| 2026-04-20 21:50 | 48.44266 | -4.71050 | 2008 ft | 206 kts | 171° |
| 2026-04-20 21:50 | 48.42880 | -4.71015 | 2007 ft | 192 kts | 172° |
| 2026-04-20 21:51 | 48.41625 | -4.70737 | 2007 ft | 174 kts | 148° |
| 2026-04-20 21:51 | 48.40730 | -4.69652 | 2010 ft | 162 kts | 121° |
| 2026-04-20 21:51 | 48.40332 | -4.68106 | 2007 ft | 160 kts | 98° |
| 2026-04-20 21:51 | 48.40169 | -4.66445 | 2009 ft | 161 kts | 99° |
| 2026-04-20 21:52 | 48.39997 | -4.64775 | 2011 ft | 161 kts | 98° |
| 2026-04-20 21:52 | 48.39981 | -4.63101 | 2009 ft | 162 kts | 81° |
| 2026-04-20 21:52 | 48.40209 | -4.62004 | 2010 ft | 164 kts | 73° |
| 2026-04-20 21:52 | 48.40567 | -4.60459 | 2031 ft | 149 kts | 75° |
| 2026-04-20 21:53 | 48.40890 | -4.59055 | 2004 ft | 135 kts | 75° |
| 2026-04-20 21:53 | 48.41185 | -4.57776 | 2000 ft | 126 kts | 76° |
| 2026-04-20 21:53 | 48.41465 | -4.56547 | 2008 ft | 123 kts | 75° |
| 2026-04-20 21:53 | 48.41743 | -4.55323 | 1917 ft | 123 kts | 75° |
| 2026-04-20 21:54 | 48.42015 | -4.54116 | 1746 ft | 121 kts | 75° |
| 2026-04-20 21:54 | 48.42285 | -4.52924 | 1561 ft | 120 kts | 74° |
| 2026-04-20 21:54 | 48.42553 | -4.51736 | 1407 ft | 120 kts | 75° |
| 2026-04-20 21:54 | 48.42824 | -4.50557 | 1247 ft | 120 kts | 73° |
| 2026-04-20 21:55 | 48.43093 | -4.49360 | 1079 ft | 121 kts | 73° |
| 2026-04-20 21:55 | 48.43361 | -4.48156 | 909 ft | 120 kts | 70° |
| 2026-04-20 21:55 | 48.43622 | -4.46964 | 733 ft | 120 kts | 71° |
| 2026-04-20 21:55 | 48.43901 | -4.45784 | 578 ft | 119 kts | 71° |
| 2026-04-20 21:56 | 48.44168 | -4.44593 | 424 ft | 120 kts | 70° |
| 2026-04-20 21:56 | 48.44433 | -4.43416 | 306 ft | 113 kts | 70° |
| 2026-04-20 21:56 | 48.44642 | -4.42490 | 314 ft | 65 kts | 71° |
| 2026-04-20 21:56 | 48.44697 | -4.42231 | 326 ft | 12 kts | 85° |
| 2026-04-20 21:57 | 48.44666 | -4.42154 | 331 ft | 7 kts | 153° |
| 2026-04-20 21:57 | 48.44620 | -4.42129 | 328 ft | 7 kts | 161° |
| 2026-04-20 21:57 | 48.44570 | -4.42103 | 329 ft | 8 kts | 160° |
| 2026-04-20 21:57 | 48.44514 | -4.42103 | 328 ft | 9 kts | 209° |
| 2026-04-20 21:58 | 48.44465 | -4.42165 | 332 ft | 10 kts | 220° |
| 2026-04-20 21:58 | 48.44441 | -4.42188 | 331 ft | 2 kts | 181° |
| 2026-04-20 21:58 | 48.44430 | -4.42173 | 330 ft | 3 kts | 136° |
| 2026-04-20 21:58 | 48.44413 | -4.42151 | 331 ft | 4 kts | 139° |
| 2026-04-20 21:59 | 48.44406 | -4.42142 | 331 ft | 0 kts | 140° |